sensor_id;sensor_type;location;lat;lon;timestamp;pressure;altitude;pressure_sealevel;temperature
75273;BMP280;63869;52.344;16.928;2023-05-29T00:00:40;101080.00;;;10.93
75273;BMP280;63869;52.344;16.928;2023-05-29T00:03:05;101071.25;;;10.93
75273;BMP280;63869;52.344;16.928;2023-05-29T00:05:31;101075.06;;;10.92
75273;BMP280;63869;52.344;16.928;2023-05-29T00:07:56;101068.22;;;10.91
75273;BMP280;63869;52.344;16.928;2023-05-29T00:10:21;101061.41;;;10.79
75273;BMP280;63869;52.344;16.928;2023-05-29T00:12:47;101067.16;;;10.78
75273;BMP280;63869;52.344;16.928;2023-05-29T00:15:12;101080.88;;;10.83
75273;BMP280;63869;52.344;16.928;2023-05-29T00:17:39;101075.16;;;10.78
75273;BMP280;63869;52.344;16.928;2023-05-29T00:20:06;101072.94;;;10.73
75273;BMP280;63869;52.344;16.928;2023-05-29T00:22:35;101068.34;;;10.73
75273;BMP280;63869;52.344;16.928;2023-05-29T00:25:03;101074.41;;;10.77
75273;BMP280;63869;52.344;16.928;2023-05-29T00:27:29;101074.88;;;10.68
75273;BMP280;63869;52.344;16.928;2023-05-29T00:29:54;101066.91;;;10.54
75273;BMP280;63869;52.344;16.928;2023-05-29T00:32:19;101074.22;;;10.50
75273;BMP280;63869;52.344;16.928;2023-05-29T00:34:45;101068.91;;;10.47
75273;BMP280;63869;52.344;16.928;2023-05-29T00:37:10;101073.47;;;10.50
75273;BMP280;63869;52.344;16.928;2023-05-29T00:39:35;101074.56;;;10.56
75273;BMP280;63869;52.344;16.928;2023-05-29T00:42:01;101076.03;;;10.64
75273;BMP280;63869;52.344;16.928;2023-05-29T00:44:26;101075.25;;;10.67
75273;BMP280;63869;52.344;16.928;2023-05-29T00:46:52;101066.03;;;10.71
75273;BMP280;63869;52.344;16.928;2023-05-29T00:49:19;101065.66;;;10.77
75273;BMP280;63869;52.344;16.928;2023-05-29T00:51:45;101070.56;;;10.78
75273;BMP280;63869;52.344;16.928;2023-05-29T00:54:13;101052.28;;;10.69
75273;BMP280;63869;52.344;16.928;2023-05-29T00:56:40;101068.66;;;10.79
75273;BMP280;63869;52.344;16.928;2023-05-29T00:59:09;101077.53;;;10.72
75273;BMP280;63869;52.344;16.928;2023-05-29T01:01:34;101069.94;;;10.63
75273;BMP280;63869;52.344;16.928;2023-05-29T01:04:01;101071.81;;;10.66
75273;BMP280;63869;52.344;16.928;2023-05-29T01:06:28;101079.88;;;10.63
75273;BMP280;63869;52.344;16.928;2023-05-29T01:08:54;101070.75;;;10.57
75273;BMP280;63869;52.344;16.928;2023-05-29T01:14:54;101065.41;;;10.57
75273;BMP280;63869;52.344;16.928;2023-05-29T01:28:57;101073.16;;;10.41
75273;BMP280;63869;52.344;16.928;2023-05-29T01:31:26;101081.16;;;10.37
75273;BMP280;63869;52.344;16.928;2023-05-29T01:33:53;101078.94;;;10.28
75273;BMP280;63869;52.344;16.928;2023-05-29T01:36:19;101072.81;;;10.28
75273;BMP280;63869;52.344;16.928;2023-05-29T01:38:44;101076.25;;;10.32
75273;BMP280;63869;52.344;16.928;2023-05-29T01:41:11;101070.56;;;10.23
75273;BMP280;63869;52.344;16.928;2023-05-29T01:43:37;101080.88;;;10.21
75273;BMP280;63869;52.344;16.928;2023-05-29T01:46:02;101068.72;;;10.13
75273;BMP280;63869;52.344;16.928;2023-05-29T01:48:27;101067.19;;;10.12
75273;BMP280;63869;52.344;16.928;2023-05-29T01:50:54;101073.34;;;10.09
75273;BMP280;63869;52.344;16.928;2023-05-29T01:53:20;101071.47;;;9.98
75273;BMP280;63869;52.344;16.928;2023-05-29T01:55:46;101068.03;;;9.91
75273;BMP280;63869;52.344;16.928;2023-05-29T01:58:12;101074.16;;;9.91
75273;BMP280;63869;52.344;16.928;2023-05-29T02:00:38;101061.25;;;9.79
75273;BMP280;63869;52.344;16.928;2023-05-29T02:03:05;101062.38;;;9.75
75273;BMP280;63869;52.344;16.928;2023-05-29T02:05:30;101065.81;;;9.75
75273;BMP280;63869;52.344;16.928;2023-05-29T02:07:55;101069.28;;;9.69
75273;BMP280;63869;52.344;16.928;2023-05-29T02:10:21;101067.41;;;9.62
75273;BMP280;63869;52.344;16.928;2023-05-29T02:12:46;101062.44;;;9.64
75273;BMP280;63869;52.344;16.928;2023-05-29T02:15:11;101060.16;;;9.62
75273;BMP280;63869;52.344;16.928;2023-05-29T02:17:37;101068.19;;;9.52
75273;BMP280;63869;52.344;16.928;2023-05-29T02:20:02;101058.28;;;9.42
75273;BMP280;63869;52.344;16.928;2023-05-29T02:22:29;101046.91;;;9.30
75273;BMP280;63869;52.344;16.928;2023-05-29T02:24:55;101059.81;;;9.36
75273;BMP280;63869;52.344;16.928;2023-05-29T02:27:20;101064.41;;;9.31
75273;BMP280;63869;52.344;16.928;2023-05-29T02:29:45;101067.47;;;9.30
75273;BMP280;63869;52.344;16.928;2023-05-29T02:32:11;101059.81;;;9.21
75273;BMP280;63869;52.344;16.928;2023-05-29T02:34:36;101065.97;;;9.18
75273;BMP280;63869;52.344;16.928;2023-05-29T02:37:01;101065.19;;;9.18
75273;BMP280;63869;52.344;16.928;2023-05-29T02:39:27;101074.31;;;9.13
75273;BMP280;63869;52.344;16.928;2023-05-29T02:41:53;101075.06;;;9.14
75273;BMP280;63869;52.344;16.928;2023-05-29T02:44:19;101064.06;;;9.12
75273;BMP280;63869;52.344;16.928;2023-05-29T02:46:44;101067.84;;;9.14
75273;BMP280;63869;52.344;16.928;2023-05-29T02:49:09;101065.94;;;9.11
75273;BMP280;63869;52.344;16.928;2023-05-29T02:51:35;101061.00;;;9.10
75273;BMP280;63869;52.344;16.928;2023-05-29T02:54:00;101068.25;;;9.16
75273;BMP280;63869;52.344;16.928;2023-05-29T02:56:25;101058.72;;;9.15
75273;BMP280;63869;52.344;16.928;2023-05-29T02:58:51;101065.94;;;9.22
75273;BMP280;63869;52.344;16.928;2023-05-29T03:01:17;101060.59;;;9.22
75273;BMP280;63869;52.344;16.928;2023-05-29T03:03:43;101061.34;;;9.22
75273;BMP280;63869;52.344;16.928;2023-05-29T03:06:08;101063.63;;;9.27
75273;BMP280;63869;52.344;16.928;2023-05-29T03:08:35;101067.06;;;9.28
75273;BMP280;63869;52.344;16.928;2023-05-29T03:11:00;101063.63;;;9.27
75273;BMP280;63869;52.344;16.928;2023-05-29T03:13:26;101070.50;;;9.36
75273;BMP280;63869;52.344;16.928;2023-05-29T03:15:52;101063.25;;;9.36
75273;BMP280;63869;52.344;16.928;2023-05-29T03:18:22;101060.59;;;9.40
75273;BMP280;63869;52.344;16.928;2023-05-29T03:20:47;101057.50;;;9.41
75273;BMP280;63869;52.344;16.928;2023-05-29T03:23:13;101074.31;;;9.49
75273;BMP280;63869;52.344;16.928;2023-05-29T03:25:38;101068.19;;;9.52
75273;BMP280;63869;52.344;16.928;2023-05-29T03:28:03;101068.16;;;9.62
75273;BMP280;63869;52.344;16.928;2023-05-29T03:30:29;101078.41;;;9.71
75273;BMP280;63869;52.344;16.928;2023-05-29T03:32:54;101065.84;;;9.68
75273;BMP280;63869;52.344;16.928;2023-05-29T03:35:19;101085.59;;;9.88
75273;BMP280;63869;52.344;16.928;2023-05-29T03:37:45;101084.81;;;9.98
75273;BMP280;63869;52.344;16.928;2023-05-29T03:40:10;101086.28;;;10.07
75273;BMP280;63869;52.344;16.928;2023-05-29T03:42:36;101089.69;;;10.14
75273;BMP280;63869;52.344;16.928;2023-05-29T03:45:01;101088.13;;;10.24
75273;BMP280;63869;52.344;16.928;2023-05-29T03:47:27;101082.31;;;10.36
75273;BMP280;63869;52.344;16.928;2023-05-29T03:49:52;101076.53;;;10.48
75273;BMP280;63869;52.344;16.928;2023-05-29T03:52:17;101090.19;;;10.61
75273;BMP280;63869;52.344;16.928;2023-05-29T03:54:42;101090.09;;;10.71
75273;BMP280;63869;52.344;16.928;2023-05-29T03:57:09;101091.19;;;10.85
75273;BMP280;63869;52.344;16.928;2023-05-29T03:59:35;101099.09;;;10.99
75273;BMP280;63869;52.344;16.928;2023-05-29T04:02:00;101091.38;;;11.08
75273;BMP280;63869;52.344;16.928;2023-05-29T04:04:26;101104.63;;;11.22
75273;BMP280;63869;52.344;16.928;2023-05-29T04:06:52;101094.19;;;11.31
75273;BMP280;63869;52.344;16.928;2023-05-29T04:09:17;101093.69;;;11.44
75273;BMP280;63869;52.344;16.928;2023-05-29T04:11:43;101094.75;;;11.53
75273;BMP280;63869;52.344;16.928;2023-05-29T04:14:09;101101.13;;;11.63
75273;BMP280;63869;52.344;16.928;2023-05-29T04:16:35;101098.28;;;11.77
75273;BMP280;63869;52.344;16.928;2023-05-29T04:19:00;101103.13;;;11.89
75273;BMP280;63869;52.344;16.928;2023-05-29T04:21:25;101104.47;;;12.04
75273;BMP280;63869;52.344;16.928;2023-05-29T04:23:51;101106.59;;;12.17
75273;BMP280;63869;52.344;16.928;2023-05-29T04:26:17;101109.50;;;12.29
75273;BMP280;63869;52.344;16.928;2023-05-29T04:28:43;101107.75;;;12.42
75273;BMP280;63869;52.344;16.928;2023-05-29T04:31:08;101111.47;;;12.52
75273;BMP280;63869;52.344;16.928;2023-05-29T04:33:39;101117.41;;;12.63
75273;BMP280;63869;52.344;16.928;2023-05-29T04:36:05;101109.25;;;12.70
75273;BMP280;63869;52.344;16.928;2023-05-29T04:38:30;101106.13;;;12.75
75273;BMP280;63869;52.344;16.928;2023-05-29T04:40:56;101120.13;;;12.87
75273;BMP280;63869;52.344;16.928;2023-05-29T04:43:24;101116.25;;;12.88
75273;BMP280;63869;52.344;16.928;2023-05-29T04:45:52;101119.94;;;12.97
75273;BMP280;63869;52.344;16.928;2023-05-29T04:48:17;101116.72;;;13.06
75273;BMP280;63869;52.344;16.928;2023-05-29T04:50:43;101119.97;;;13.17
75273;BMP280;63869;52.344;16.928;2023-05-29T04:53:09;101109.47;;;13.26
75273;BMP280;63869;52.344;16.928;2023-05-29T04:55:35;101115.38;;;13.37
75273;BMP280;63869;52.344;16.928;2023-05-29T04:58:01;101103.34;;;13.45
75273;BMP280;63869;52.344;16.928;2023-05-29T05:00:26;101109.22;;;13.60
75273;BMP280;63869;52.344;16.928;2023-05-29T05:02:52;101102.16;;;13.66
75273;BMP280;63869;52.344;16.928;2023-05-29T05:05:17;101104.84;;;13.66
75273;BMP280;63869;52.344;16.928;2023-05-29T05:07:42;101108.00;;;13.81
75273;BMP280;63869;52.344;16.928;2023-05-29T05:10:08;101108.56;;;13.92
75273;BMP280;63869;52.344;16.928;2023-05-29T05:12:33;101106.44;;;14.00
75273;BMP280;63869;52.344;16.928;2023-05-29T05:14:59;101106.88;;;14.14
75273;BMP280;63869;52.344;16.928;2023-05-29T05:17:24;101109.00;;;14.23
75273;BMP280;63869;52.344;16.928;2023-05-29T05:19:49;101112.22;;;14.34
75273;BMP280;63869;52.344;16.928;2023-05-29T05:22:19;101111.63;;;14.43
75273;BMP280;63869;52.344;16.928;2023-05-29T05:24:44;101110.34;;;14.47
75273;BMP280;63869;52.344;16.928;2023-05-29T05:27:10;101125.16;;;14.55
75273;BMP280;63869;52.344;16.928;2023-05-29T05:29:35;101116.16;;;14.62
75273;BMP280;63869;52.344;16.928;2023-05-29T05:32:00;101118.59;;;14.73
75273;BMP280;63869;52.344;16.928;2023-05-29T05:34:26;101118.78;;;14.82
75273;BMP280;63869;52.344;16.928;2023-05-29T05:36:51;101119.75;;;14.88
75273;BMP280;63869;52.344;16.928;2023-05-29T05:39:16;101106.25;;;15.04
75273;BMP280;63869;52.344;16.928;2023-05-29T05:41:41;101111.38;;;15.15
75273;BMP280;63869;52.344;16.928;2023-05-29T05:44:07;101114.50;;;15.26
75273;BMP280;63869;52.344;16.928;2023-05-29T05:46:32;101126.09;;;15.39
75273;BMP280;63869;52.344;16.928;2023-05-29T05:48:58;101119.88;;;15.55
75273;BMP280;63869;52.344;16.928;2023-05-29T05:51:24;101122.91;;;15.69
75273;BMP280;63869;52.344;16.928;2023-05-29T05:53:49;101133.50;;;15.76
75273;BMP280;63869;52.344;16.928;2023-05-29T05:56:14;101129.72;;;15.87
75273;BMP280;63869;52.344;16.928;2023-05-29T05:58:40;101127.91;;;16.09
75273;BMP280;63869;52.344;16.928;2023-05-29T06:01:06;101129.06;;;16.20
75273;BMP280;63869;52.344;16.928;2023-05-29T06:03:33;101144.19;;;16.31
75273;BMP280;63869;52.344;16.928;2023-05-29T06:05:59;101140.84;;;16.39
75273;BMP280;63869;52.344;16.928;2023-05-29T06:08:25;101141.47;;;16.43
75273;BMP280;63869;52.344;16.928;2023-05-29T06:10:51;101144.25;;;16.52
75273;BMP280;63869;52.344;16.928;2023-05-29T06:13:17;101143.59;;;16.61
75273;BMP280;63869;52.344;16.928;2023-05-29T06:15:43;101147.00;;;16.74
75273;BMP280;63869;52.344;16.928;2023-05-29T06:18:08;101148.72;;;16.81
75273;BMP280;63869;52.344;16.928;2023-05-29T06:20:33;101145.13;;;16.84
75273;BMP280;63869;52.344;16.928;2023-05-29T06:22:59;101142.06;;;16.94
75273;BMP280;63869;52.344;16.928;2023-05-29T06:25:24;101148.34;;;17.04
75273;BMP280;63869;52.344;16.928;2023-05-29T06:27:58;101149.25;;;17.10
75273;BMP280;63869;52.344;16.928;2023-05-29T06:30:23;101150.81;;;17.20
75273;BMP280;63869;52.344;16.928;2023-05-29T06:32:48;101151.31;;;17.28
75273;BMP280;63869;52.344;16.928;2023-05-29T06:35:14;101159.09;;;17.48
75273;BMP280;63869;52.344;16.928;2023-05-29T06:37:39;101169.44;;;17.71
75273;BMP280;63869;52.344;16.928;2023-05-29T06:40:05;101168.34;;;17.90
75273;BMP280;63869;52.344;16.928;2023-05-29T06:42:31;101176.19;;;17.97
75273;BMP280;63869;52.344;16.928;2023-05-29T06:44:56;101166.38;;;17.91
75273;BMP280;63869;52.344;16.928;2023-05-29T06:47:21;101166.75;;;18.02
75273;BMP280;63869;52.344;16.928;2023-05-29T06:49:47;101161.78;;;18.09
75273;BMP280;63869;52.344;16.928;2023-05-29T06:52:12;101167.94;;;18.10
75273;BMP280;63869;52.344;16.928;2023-05-29T06:54:37;101154.84;;;18.08
75273;BMP280;63869;52.344;16.928;2023-05-29T06:57:03;101162.56;;;18.19
75273;BMP280;63869;52.344;16.928;2023-05-29T06:59:28;101175.69;;;18.30
75273;BMP280;63869;52.344;16.928;2023-05-29T07:01:53;101181.72;;;18.34
75273;BMP280;63869;52.344;16.928;2023-05-29T07:04:19;101182.47;;;18.34
75273;BMP280;63869;52.344;16.928;2023-05-29T07:06:44;101183.06;;;18.38
75273;BMP280;63869;52.344;16.928;2023-05-29T07:09:09;101193.75;;;18.42
75273;BMP280;63869;52.344;16.928;2023-05-29T07:11:35;101186.25;;;18.46
75273;BMP280;63869;52.344;16.928;2023-05-29T07:14:00;101182.97;;;18.60
75273;BMP280;63869;52.344;16.928;2023-05-29T07:16:25;101181.00;;;18.70
75273;BMP280;63869;52.344;16.928;2023-05-29T07:18:51;101186.59;;;18.75
75273;BMP280;63869;52.344;16.928;2023-05-29T07:21:17;101180.25;;;18.87
75273;BMP280;63869;52.344;16.928;2023-05-29T07:23:43;101184.03;;;18.99
75273;BMP280;63869;52.344;16.928;2023-05-29T07:26:08;101174.06;;;19.05
75273;BMP280;63869;52.344;16.928;2023-05-29T07:28:34;101179.63;;;19.11
75273;BMP280;63869;52.344;16.928;2023-05-29T07:30:59;101186.56;;;19.21
75273;BMP280;63869;52.344;16.928;2023-05-29T07:33:27;101183.84;;;19.30
75273;BMP280;63869;52.344;16.928;2023-05-29T07:35:53;101183.53;;;19.37
75273;BMP280;63869;52.344;16.928;2023-05-29T07:38:18;101179.44;;;19.42
75273;BMP280;63869;52.344;16.928;2023-05-29T07:40:43;101189.50;;;19.50
75273;BMP280;63869;52.344;16.928;2023-05-29T07:43:09;101187.69;;;19.56
75273;BMP280;63869;52.344;16.928;2023-05-29T07:45:34;101189.75;;;19.70
75273;BMP280;63869;52.344;16.928;2023-05-29T07:48:00;101188.78;;;19.83
75273;BMP280;63869;52.344;16.928;2023-05-29T07:50:25;101181.06;;;19.90
75273;BMP280;63869;52.344;16.928;2023-05-29T07:52:50;101182.13;;;19.93
75273;BMP280;63869;52.344;16.928;2023-05-29T07:55:16;101191.75;;;19.94
75273;BMP280;63869;52.344;16.928;2023-05-29T07:57:41;101190.16;;;20.11
75273;BMP280;63869;52.344;16.928;2023-05-29T08:00:07;101186.94;;;20.22
75273;BMP280;63869;52.344;16.928;2023-05-29T08:02:33;101202.38;;;20.39
75273;BMP280;63869;52.344;16.928;2023-05-29T08:04:59;101205.13;;;20.54
75273;BMP280;63869;52.344;16.928;2023-05-29T08:07:27;101211.88;;;20.58
75273;BMP280;63869;52.344;16.928;2023-05-29T08:09:53;101206.19;;;20.56
75273;BMP280;63869;52.344;16.928;2023-05-29T08:12:19;101209.16;;;20.58
75273;BMP280;63869;52.344;16.928;2023-05-29T08:14:44;101206.19;;;20.56
75273;BMP280;63869;52.344;16.928;2023-05-29T08:17:09;101204.13;;;20.66
75273;BMP280;63869;52.344;16.928;2023-05-29T08:19:36;101207.94;;;20.59
75273;BMP280;63869;52.344;16.928;2023-05-29T08:22:02;101197.50;;;20.67
75273;BMP280;63869;52.344;16.928;2023-05-29T08:24:27;101206.19;;;20.71
75273;BMP280;63869;52.344;16.928;2023-05-29T08:26:53;101202.72;;;20.71
75273;BMP280;63869;52.344;16.928;2023-05-29T08:29:20;101203.88;;;20.79
75273;BMP280;63869;52.344;16.928;2023-05-29T08:31:45;101197.41;;;20.91
75273;BMP280;63869;52.344;16.928;2023-05-29T08:34:11;101194.13;;;20.87
75273;BMP280;63869;52.344;16.928;2023-05-29T08:36:36;101211.50;;;21.04
75273;BMP280;63869;52.344;16.928;2023-05-29T08:39:04;101201.50;;;21.10
75273;BMP280;63869;52.344;16.928;2023-05-29T08:41:55;101213.22;;;21.31
75273;BMP280;63869;52.344;16.928;2023-05-29T08:44:26;101214.63;;;21.26
75273;BMP280;63869;52.344;16.928;2023-05-29T08:46:54;101202.25;;;21.25
75273;BMP280;63869;52.344;16.928;2023-05-29T08:49:21;101204.13;;;21.34
75273;BMP280;63869;52.344;16.928;2023-05-29T08:51:49;101203.44;;;21.39
75273;BMP280;63869;52.344;16.928;2023-05-29T08:54:20;101199.41;;;21.34
75273;BMP280;63869;52.344;16.928;2023-05-29T08:56:47;101212.91;;;21.43
75273;BMP280;63869;52.344;16.928;2023-05-29T08:59:12;101215.63;;;21.43
75273;BMP280;63869;52.344;16.928;2023-05-29T09:01:38;101213.28;;;21.51
75273;BMP280;63869;52.344;16.928;2023-05-29T09:04:04;101204.56;;;21.62
75273;BMP280;63869;52.344;16.928;2023-05-29T09:06:29;101210.25;;;21.64
75273;BMP280;63869;52.344;16.928;2023-05-29T09:08:56;101198.66;;;21.63
75273;BMP280;63869;52.344;16.928;2023-05-29T09:11:22;101210.25;;;21.64
75273;BMP280;63869;52.344;16.928;2023-05-29T09:13:48;101208.09;;;21.68
75273;BMP280;63869;52.344;16.928;2023-05-29T09:16:16;101203.63;;;21.85
75273;BMP280;63869;52.344;16.928;2023-05-29T09:18:42;101211.91;;;21.91
75273;BMP280;63869;52.344;16.928;2023-05-29T09:21:13;101205.84;;;22.01
75273;BMP280;63869;52.344;16.928;2023-05-29T09:23:52;101213.78;;;22.19
75273;BMP280;63869;52.344;16.928;2023-05-29T09:26:17;101203.47;;;22.29
75273;BMP280;63869;52.344;16.928;2023-05-29T09:28:45;101216.22;;;22.38
75273;BMP280;63869;52.344;16.928;2023-05-29T09:31:16;101211.59;;;22.44
75273;BMP280;63869;52.344;16.928;2023-05-29T09:33:49;101213.69;;;22.54
75273;BMP280;63869;52.344;16.928;2023-05-29T09:36:22;101224.66;;;22.60
75273;BMP280;63869;52.344;16.928;2023-05-29T09:38:48;101214.28;;;22.64
75273;BMP280;63869;52.344;16.928;2023-05-29T09:41:20;101221.66;;;22.58
75273;BMP280;63869;52.344;16.928;2023-05-29T09:43:48;101194.94;;;22.42
75273;BMP280;63869;52.344;16.928;2023-05-29T09:46:15;101211.72;;;22.55
75273;BMP280;63869;52.344;16.928;2023-05-29T09:48:42;101212.03;;;22.62
75273;BMP280;63869;52.344;16.928;2023-05-29T09:51:22;101207.47;;;22.80
75273;BMP280;63869;52.344;16.928;2023-05-29T09:53:48;101208.22;;;23.06
75273;BMP280;63869;52.344;16.928;2023-05-29T09:56:15;101210.34;;;23.16
75273;BMP280;63869;52.344;16.928;2023-05-29T09:58:44;101202.78;;;23.43
75273;BMP280;63869;52.344;16.928;2023-05-29T10:01:12;101214.75;;;23.82
75273;BMP280;63869;52.344;16.928;2023-05-29T10:03:37;101210.34;;;24.01
75273;BMP280;63869;52.344;16.928;2023-05-29T10:06:04;101216.19;;;24.31
75273;BMP280;63869;52.344;16.928;2023-05-29T10:08:32;101218.22;;;24.42
75273;BMP280;63869;52.344;16.928;2023-05-29T10:11:00;101217.78;;;24.01
75273;BMP280;63869;52.344;16.928;2023-05-29T10:13:38;101208.53;;;23.87
75273;BMP280;63869;52.344;16.928;2023-05-29T10:16:07;101213.59;;;24.00
75273;BMP280;63869;52.344;16.928;2023-05-29T10:18:43;101212.66;;;24.14
75273;BMP280;63869;52.344;16.928;2023-05-29T10:21:11;101206.66;;;24.16
75273;BMP280;63869;52.344;16.928;2023-05-29T10:23:37;101210.41;;;24.13
75273;BMP280;63869;52.344;16.928;2023-05-29T10:26:15;101213.59;;;24.05
75273;BMP280;63869;52.344;16.928;2023-05-29T10:28:44;101219.28;;;23.96
75273;BMP280;63869;52.344;16.928;2023-05-29T10:31:17;101223.75;;;23.99
75273;BMP280;63869;52.344;16.928;2023-05-29T10:37:02;101204.00;;;24.27
75273;BMP280;63869;52.344;16.928;2023-05-29T10:39:29;101214.94;;;24.38
75273;BMP280;63869;52.344;16.928;2023-05-29T10:41:54;101207.22;;;24.31
75273;BMP280;63869;52.344;16.928;2023-05-29T10:47:05;101209.84;;;24.03
75273;BMP280;63869;52.344;16.928;2023-05-29T10:49:31;101198.47;;;24.10
75273;BMP280;63869;52.344;16.928;2023-05-29T10:51:58;101200.97;;;24.14
75273;BMP280;63869;52.344;16.928;2023-05-29T10:54:25;101195.53;;;24.30
75273;BMP280;63869;52.344;16.928;2023-05-29T10:56:55;101183.41;;;24.54
75273;BMP280;63869;52.344;16.928;2023-05-29T10:59:20;101176.97;;;24.73
75273;BMP280;63869;52.344;16.928;2023-05-29T11:01:46;101196.38;;;24.98
75273;BMP280;63869;52.344;16.928;2023-05-29T11:06:45;101193.38;;;25.07
75273;BMP280;63869;52.344;16.928;2023-05-29T11:09:32;101190.44;;;24.88
75273;BMP280;63869;52.344;16.928;2023-05-29T11:12:23;101181.97;;;24.91
75273;BMP280;63869;52.344;16.928;2023-05-29T11:15:08;101182.94;;;25.11
75273;BMP280;63869;52.344;16.928;2023-05-29T11:20:37;101180.19;;;25.00
75273;BMP280;63869;52.344;16.928;2023-05-29T11:23:04;101176.22;;;24.73
75273;BMP280;63869;52.344;16.928;2023-05-29T11:25:34;101184.91;;;24.49
75273;BMP280;63869;52.344;16.928;2023-05-29T11:28:00;101175.88;;;24.21
75273;BMP280;63869;52.344;16.928;2023-05-29T11:30:25;101179.38;;;24.27
75273;BMP280;63869;52.344;16.928;2023-05-29T11:32:52;101180.19;;;24.55
75273;BMP280;63869;52.344;16.928;2023-05-29T11:35:19;101187.13;;;24.39
75273;BMP280;63869;52.344;16.928;2023-05-29T11:37:47;101177.66;;;24.29
75273;BMP280;63869;52.344;16.928;2023-05-29T11:40:13;101182.84;;;24.33
75273;BMP280;63869;52.344;16.928;2023-05-29T11:42:44;101162.88;;;24.04
75273;BMP280;63869;52.344;16.928;2023-05-29T11:45:13;101186.31;;;24.17
75273;BMP280;63869;52.344;16.928;2023-05-29T11:47:55;101172.91;;;24.19
75273;BMP280;63869;52.344;16.928;2023-05-29T11:50:23;101163.75;;;24.44
75273;BMP280;63869;52.344;16.928;2023-05-29T11:52:49;101176.75;;;24.71
75273;BMP280;63869;52.344;16.928;2023-05-29T11:55:14;101161.03;;;24.66
75273;BMP280;63869;52.344;16.928;2023-05-29T11:57:40;101161.06;;;24.88
75273;BMP280;63869;52.344;16.928;2023-05-29T12:00:06;101162.03;;;24.96
75273;BMP280;63869;52.344;16.928;2023-05-29T12:02:32;101164.03;;;25.13
75273;BMP280;63869;52.344;16.928;2023-05-29T12:05:02;101164.78;;;25.08
75273;BMP280;63869;52.344;16.928;2023-05-29T12:07:29;101157.78;;;25.07
75273;BMP280;63869;52.344;16.928;2023-05-29T12:09:55;101166.50;;;25.22
75273;BMP280;63869;52.344;16.928;2023-05-29T12:12:23;101143.81;;;25.32
75273;BMP280;63869;52.344;16.928;2023-05-29T12:14:51;101145.53;;;25.41
75273;BMP280;63869;52.344;16.928;2023-05-29T12:17:18;101143.28;;;25.45
75273;BMP280;63869;52.344;16.928;2023-05-29T12:19:43;101144.19;;;25.70
75273;BMP280;63869;52.344;16.928;2023-05-29T12:22:09;101135.31;;;25.94
75273;BMP280;63869;52.344;16.928;2023-05-29T12:24:35;101165.59;;;26.18
75273;BMP280;63869;52.344;16.928;2023-05-29T12:27:04;101141.19;;;26.20
75273;BMP280;63869;52.344;16.928;2023-05-29T12:29:35;101143.38;;;26.21
75273;BMP280;63869;52.344;16.928;2023-05-29T12:32:01;101134.88;;;26.25
75273;BMP280;63869;52.344;16.928;2023-05-29T12:34:34;101144.00;;;26.44
75273;BMP280;63869;52.344;16.928;2023-05-29T12:37:08;101165.31;;;26.57
75273;BMP280;63869;52.344;16.928;2023-05-29T12:39:35;101148.59;;;26.25
75273;BMP280;63869;52.344;16.928;2023-05-29T12:42:00;101161.72;;;26.38
75273;BMP280;63869;52.344;16.928;2023-05-29T12:44:25;101144.00;;;26.44
75273;BMP280;63869;52.344;16.928;2023-05-29T12:46:56;101157.53;;;26.31
75273;BMP280;63869;52.344;16.928;2023-05-29T12:49:21;101144.69;;;26.50
75273;BMP280;63869;52.344;16.928;2023-05-29T12:51:50;101145.72;;;26.77
75273;BMP280;63869;52.344;16.928;2023-05-29T12:54:17;101145.31;;;27.16
75273;BMP280;63869;52.344;16.928;2023-05-29T12:56:43;101146.03;;;27.41
75273;BMP280;63869;52.344;16.928;2023-05-29T12:59:09;101156.66;;;27.50
75273;BMP280;63869;52.344;16.928;2023-05-29T13:01:36;101144.09;;;27.54
75273;BMP280;63869;52.344;16.928;2023-05-29T13:04:03;101139.59;;;27.75
75273;BMP280;63869;52.344;16.928;2023-05-29T13:06:31;101144.34;;;27.56
75273;BMP280;63869;52.344;16.928;2023-05-29T13:08:57;101143.59;;;27.74
75273;BMP280;63869;52.344;16.928;2023-05-29T13:11:22;101134.75;;;27.82
75273;BMP280;63869;52.344;16.928;2023-05-29T13:13:47;101139.13;;;27.71
75273;BMP280;63869;52.344;16.928;2023-05-29T13:16:13;101135.47;;;27.82
75273;BMP280;63869;52.344;16.928;2023-05-29T13:18:38;101133.53;;;27.96
75273;BMP280;63869;52.344;16.928;2023-05-29T13:21:03;101135.38;;;28.06
75273;BMP280;63869;52.344;16.928;2023-05-29T13:23:29;101121.25;;;27.97
75273;BMP280;63869;52.344;16.928;2023-05-29T13:25:54;101131.31;;;27.94
75273;BMP280;63869;52.344;16.928;2023-05-29T13:28:20;101121.00;;;28.13
75273;BMP280;63869;52.344;16.928;2023-05-29T13:30:46;101121.31;;;28.68
75273;BMP280;63869;52.344;16.928;2023-05-29T13:33:13;101121.16;;;29.39
75273;BMP280;63869;52.344;16.928;2023-05-29T13:35:38;101131.38;;;29.86
75273;BMP280;63869;52.344;16.928;2023-05-29T13:38:03;101121.03;;;29.99
75273;BMP280;63869;52.344;16.928;2023-05-29T13:40:29;101136.72;;;29.84
75273;BMP280;63869;52.344;16.928;2023-05-29T13:42:57;101121.91;;;29.73
75273;BMP280;63869;52.344;16.928;2023-05-29T13:45:22;101123.22;;;29.93
75273;BMP280;63869;52.344;16.928;2023-05-29T13:47:47;101130.97;;;30.02
75273;BMP280;63869;52.344;16.928;2023-05-29T13:50:13;101124.13;;;29.75
75273;BMP280;63869;52.344;16.928;2023-05-29T13:52:38;101116.72;;;29.36
75273;BMP280;63869;52.344;16.928;2023-05-29T13:55:04;101103.50;;;29.21
75273;BMP280;63869;52.344;16.928;2023-05-29T13:57:33;101118.28;;;29.45
75273;BMP280;63869;52.344;16.928;2023-05-29T13:59:59;101112.28;;;29.67
75273;BMP280;63869;52.344;16.928;2023-05-29T14:02:24;101104.91;;;30.03
75273;BMP280;63869;52.344;16.928;2023-05-29T14:04:51;101103.88;;;30.42
75273;BMP280;63869;52.344;16.928;2023-05-29T14:07:16;101115.31;;;30.74
75273;BMP280;63869;52.344;16.928;2023-05-29T14:09:41;101118.53;;;30.58